Aéroport d'Albi - Le Séquestre

21/02/2020
OBS MET LFCI*:210700Z 00000KT 9999 SCT012 BKN026 06/05 Q1031=
21/02/20 07h11 - *la nébulosité est estimée par l'AFIS et par conséquent non certifiée;

LIENS UTILES

SIA :https://www.sia.aviation-civile.gouv.fr/
Transport à Albi :http://www.grand-albigeois.fr/44-mobi.htm
Mairie d'Albi :http://www.mairie-albi.fr/
Office du tourisme :http://www.albi-tourisme.fr/
Musée Toulouse Lautrec :http://www.museetoulouselautrec.net/

Retrouvez tous les acteurs de l'aérodrome sur le portail www.albi.aero